Decoded Metar for LFKJ (AJACCIO in CORSE ISL.) (IATA:AJA) | Meteo·Mobile Aviation Weather
aviador You're here:

LFKJ Decoded Metar

AJACCIO in CORSE ISL.
Report Time2019-02-22 00:00:00
UTC Time2019-02-22 00:10:47
Flight Rules vfr VFR
Wind030° at 02 kt
W.Decomp.*RWY 02: 2.0 kt HW 0.3 kt RCW
W.Rank030° ranks 5
Current wind is below 030° avg. (5.3)
Visibility9999 m
Phenomena:N/A
Clouds:Scattered 025 Hf
Overcast 034 Hf
Expected CloudBase > 1,200 ft AGL from Temp-Dew spread
Ceiling3,400 ft
Temp10°C (ISA -5)
Dew Point07°C (82% RH)
AAT8.6°C
QNH1029 hPa
Density Alt-965 ft
Elevation30 ft
Report Wrong Elevation
Raw Report
METAR LFKJ 220000Z AUTO 03002KT 9999 SCT025 OVC034 10/07 Q1029
NOSIG=

Extra information for LFKJ:More info

Metar Taf Metar & Taf Last 4 Metars F.Rules Stats Wind Profile Meteogram Temp Stats Airport Information Weather charts Add Link Nearby VenuesMetar ALERT Operation Metar Decoded Social comments